Mackenzie, Canada
Current Conditions -  °F | °C
As of 9:00 PM on Friday 19 Dec 2014 (Local Time) from CYZY Reporting Station
Overcast Overcast  
Wind Chill: 32°   Ceiling: 6000
Heat Index: 32°   Visibility: 9mi
Dew Point: 32°   Wind: 2mph
Humidity: 100%   Direction: 140°SE
Pressure: 29.59"   Gusts: NA
Location:  55.33°N, 123.09°W
Report Text: CYZY 200500Z AUTO 14002KT 9SM FEW028 BKN060 OVC077 M00/M00 A2959 RMK SLP050
Loading
Personal Weather Stations






























Interactive Weather Map New forecast layout! Learn more

10-Day Weather Forecast

Advertisements
Track Severe Weather on mobile